Archival Weather

Chicago O'Hare International

Chicago, Illinois (KORD)

Report from: Sunday, December 25, 2022 2:51 AM CST
Current time: Friday, June 14, 2024 8:04 AM CDT

Current weather – Weather history – Daily summaries
Weather forecast

Temperature-15.0°C (5.0°F)
Wind chill-24.2°C (-11.6°F)
Dew point-20.6°C (-5.1°F)
Winds 11 kts (5.7 m/s, 12.7 mph) West (270°)
Wind gusts 23 kts (11.8 m/s, 26.5 mph)
Visibility10 mi. (16.1 km)
Clouds Sky clear
Altimeter29.99 in.Hg (1016 mB)
Relative humidity62 %
Density altitude-3,905 ft. (-1,190 m)
Sea-level pressure101.7 kPa (1017 mB, 30.04 in.Hg)
Remarks System requires maintenance
Automated weather observing station with precipitation discriminator
Pressure rising more quickly
Flight conditions Visual Meteorological Conditions
Raw dataKORD 250851Z 27011G23KT 10SM CLR M15/M21 A2999 RMK AO2 SLP171 T11501206 53009 $
An error has occurred. This application may no longer respond until reloaded. Reload 🗙